Accueil
METAR-TAF:

METAR-TAF

Aéroports :

Aérodrome de Logrogne

Logroño, Espagne

latitude: 42-27N, longitude: 002-20W, altitude: 353 m

Observation

Le bulletin a été fait il y a 25 minutes, à 02:30 UTC
Vent 9 kt de ouest
Température 5°C
Humidité 65%
Pression 1022 hPa
Visibilité 10 km ou plus
Nuages fragmentés à une hauteur de 5000 ft

METAR: LELO 170230Z AUTO 28009KT 9999 BKN050 05/M01 Q1022

Heure: 04:55 (02:55 UTC)

Prévision

Le bulletin a été fait il y a 55 minutes, à 02:00 UTC
Prévision valable du 17 à 03 UTC au 18 à 03 UTC
Vent 10 kt de ouest
Visibilité 10 km ou plus
Nuages épars à une hauteur de 5000 ft
Probabilité 30% :
Temporairement
du 17 à 14 UTC au 17 à 20 UTC
Vent 15 kt de ouest avec des rafales jusqu'à 25 kt

TAF: LELO 170200Z 1703/1803 28010KT 9999 SCT050 TX13/1715Z TN02/1706Z PROB30 TEMPO 1714/1720 28015G25KT

Observations et prévisions météorologiques de plus de 4000 aéroports (messages METAR et TAF).

Les stations disponibles sont représentées par des disques jaunes et rouges sur la carte.

Passer la souris dessus pour voir le nom de la station.

Cliquer dessus pour voir les observations et prévisions météorologiques.

Pour changer de carte: cliquez sur les boutons verts avec une croix noire pour zoomer, sur le bouton vert avec un tiret pour effectuer un zoom arrière, ou sur les flèches vertes pour les cartes adjacentes.


METAR-TAF: